Time;durP1;ratioP1;P1;durP2;ratioP2;P2;SDS_P1;SDS_P2;PMS_P1;PMS_P2;Temp;Humidity;BMP_temperature;BMP_pressure;BME280_temperature;BME280_humidity;BME280_pressure;Samples;Min_cycle;Max_cycle;Signal;HPM_P1;HPM_P2
2021/07/12 00:00:27;;;;;;;20.17;10.73;;;;;;;19.80;58.74;98912.59;125610;1093;103067;-71
2021/07/12 00:03:15;;;;;;;19.47;10.17;;;;;;;19.75;58.83;98917.70;125711;1093;103013;-74
2021/07/12 00:05:48;;;;;;;19.83;10.18;;;;;;;19.73;58.66;98917.03;125693;1092;103524;-73
2021/07/12 00:08:16;;;;;;;21.40;10.70;;;;;;;19.70;59.11;98909.28;125697;1093;103025;-72
2021/07/12 00:10:45;;;;;;;18.70;11.10;;;;;;;19.68;59.15;98906.74;125683;1092;103006;-70
2021/07/12 00:13:13;;;;;;;21.87;11.53;;;;;;;19.67;59.16;98901.53;125674;1093;102906;-71
2021/07/12 00:15:42;;;;;;;19.10;11.93;;;;;;;19.62;58.91;98902.89;125678;1092;102935;-71
2021/07/12 00:18:10;;;;;;;19.27;11.70;;;;;;;19.56;59.01;98900.89;125707;1093;103017;-71
2021/07/12 00:20:38;;;;;;;18.70;11.27;;;;;;;19.52;59.50;98902.25;125683;1092;103039;-71
2021/07/12 00:23:07;;;;;;;19.77;12.27;;;;;;;19.50;59.30;98904.28;125682;1093;102930;-71
2021/07/12 00:25:35;;;;;;;20.73;12.17;;;;;;;19.45;59.39;98907.51;125682;1093;102941;-72
2021/07/12 00:28:06;;;;;;;20.93;12.07;;;;;;;19.45;59.30;98912.05;125706;1092;102942;-71
2021/07/12 00:30:35;;;;;;;21.35;12.10;;;;;;;19.39;59.41;98913.59;125692;1093;102923;-71
2021/07/12 00:33:03;;;;;;;20.43;11.70;;;;;;;19.37;59.42;98915.61;125705;1092;103054;-71
2021/07/12 00:35:32;;;;;;;23.83;11.50;;;;;;;19.35;59.50;98912.25;125676;1093;102938;-72
2021/07/12 00:38:00;;;;;;;20.67;11.77;;;;;;;19.34;59.65;98906.03;125710;1093;103020;-72
2021/07/12 00:40:29;;;;;;;20.80;12.27;;;;;;;19.33;60.10;98908.88;125749;1093;103505;-72
2021/07/12 00:42:58;;;;;;;20.13;12.17;;;;;;;19.31;59.75;98903.67;125720;1092;103020;-71
2021/07/12 00:45:29;;;;;;;23.07;12.67;;;;;;;19.29;60.18;98903.00;125730;1093;102994;-72
2021/07/12 00:47:59;;;;;;;21.83;12.03;;;;;;;19.30;60.36;98907.38;125750;1093;103058;-71
2021/07/12 00:50:30;;;;;;;21.60;13.60;;;;;;;19.28;60.09;98904.02;125685;1093;102995;-71
2021/07/12 00:52:58;;;;;;;20.87;12.40;;;;;;;19.30;60.39;98911.92;125708;1093;102938;-71
2021/07/12 00:55:38;;;;;;;21.00;11.83;;;;;;;19.30;60.26;98903.83;125680;1093;103152;-71
2021/07/12 00:58:09;;;;;;;21.33;12.73;;;;;;;19.28;60.24;98903.16;125710;1093;103361;-71
2021/07/12 01:00:40;;;;;;;21.47;12.33;;;;;;;19.26;60.72;98895.26;125679;1093;102940;-71
2021/07/12 01:03:10;;;;;;;21.10;11.40;;;;;;;19.26;60.73;98900.64;125712;1093;102913;-70
2021/07/12 01:05:41;;;;;;;19.37;11.30;;;;;;;19.25;60.67;98901.66;125716;1093;103000;-71
2021/07/12 01:08:10;;;;;;;20.60;12.00;;;;;;;19.24;60.57;98899.98;125705;1093;102980;-71
2021/07/12 01:10:41;;;;;;;20.67;11.77;;;;;;;19.24;60.88;98908.06;125749;1093;103058;-71
2021/07/12 01:13:47;;;;;;;23.37;12.87;;;;;;;19.22;60.65;98907.39;125615;1093;102901;-71
2021/07/12 01:16:18;;;;;;;21.83;12.40;;;;;;;19.16;60.98;98903.51;125625;1093;102988;-70
2021/07/12 01:19:25;;;;;;;21.23;13.33;;;;;;;19.14;60.80;98902.87;125735;1093;102909;-71
2021/07/12 01:22:16;;;;;;;21.50;12.80;;;;;;;19.12;61.24;98895.95;125717;1093;102994;-71
2021/07/12 01:25:03;;;;;;;20.47;12.03;;;;;;;19.11;60.98;98897.81;125691;1093;102904;-72
2021/07/12 01:27:53;;;;;;;24.37;13.13;;;;;;;19.10;61.23;98884.49;125704;1091;102917;-72
2021/07/12 01:30:41;;;;;;;20.53;12.40;;;;;;;19.08;61.37;98890.07;125662;1093;103065;-72
2021/07/12 01:33:33;;;;;;;20.53;12.13;;;;;;;19.07;61.24;98892.92;125709;1093;102913;-71
2021/07/12 01:36:12;;;;;;;20.63;12.30;;;;;;;19.04;61.71;98883.34;125719;1093;103045;-71
2021/07/12 01:38:55;;;;;;;20.50;11.47;;;;;;;19.06;61.80;98883.15;125827;1093;102913;-71
2021/07/12 01:41:26;;;;;;;22.45;11.43;;;;;;;19.05;61.84;98890.41;125749;1093;102988;-71
2021/07/12 01:44:03;;;;;;;27.67;11.40;;;;;;;19.05;61.92;98885.02;125659;1093;103058;-71
2021/07/12 01:46:39;;;;;;;20.80;11.47;;;;;;;19.04;61.80;98884.16;125696;1093;102910;-72
2021/07/12 01:49:12;;;;;;;20.73;11.70;;;;;;;19.03;61.62;98884.34;125694;1092;102995;-71
2021/07/12 01:51:46;;;;;;;20.93;11.47;;;;;;;18.98;61.93;98890.23;125700;1093;103383;-72
2021/07/12 01:54:36;;;;;;;21.00;12.17;;;;;;;18.83;61.67;98898.13;125704;1093;103084;-71
2021/07/12 01:57:12;;;;;;;20.13;11.17;;;;;;;18.67;61.88;98892.77;125663;1092;103062;-72
2021/07/12 02:00:01;;;;;;;19.80;11.00;;;;;;;18.62;61.84;98887.87;125734;1092;102905;-71
2021/07/12 02:02:32;;;;;;;18.23;10.00;;;;;;;18.64;61.89;98893.10;125663;1093;103138;-71
2021/07/12 02:05:08;;;;;;;19.43;10.60;;;;;;;18.64;62.34;98893.10;125726;1093;103048;-71
2021/07/12 02:07:38;;;;;;;20.33;10.20;;;;;;;18.57;61.99;98891.08;125720;1092;103030;-71
2021/07/12 02:10:07;;;;;;;19.47;10.10;;;;;;;18.43;61.83;98881.81;125682;1093;102910;-71
2021/07/12 02:12:37;;;;;;;20.43;11.23;;;;;;;18.33;62.08;98882.98;125724;1093;103032;-71
2021/07/12 02:15:07;;;;;;;18.35;10.20;;;;;;;18.32;62.57;98887.52;125674;1092;103064;-72
2021/07/12 02:17:36;;;;;;;20.63;11.17;;;;;;;18.33;62.15;98874.91;125683;1092;103049;-71
2021/07/12 02:20:09;;;;;;;20.70;11.05;;;;;;;18.34;62.56;98879.28;125657;1093;102944;-71
2021/07/12 02:22:40;;;;;;;18.53;9.73;;;;;;;18.37;62.65;98870.84;125664;1093;103030;-71
2021/07/12 02:25:12;;;;;;;18.93;10.60;;;;;;;18.38;62.33;98875.22;125718;1091;103061;-73
2021/07/12 02:27:43;;;;;;;20.73;10.80;;;;;;;18.37;62.67;98871.70;126156;1093;103061;-72
2021/07/12 02:30:12;;;;;;;20.30;10.37;;;;;;;18.34;62.76;98871.21;125654;1093;103059;-72
2021/07/12 02:32:43;;;;;;;22.90;11.20;;;;;;;18.33;62.88;98856.89;125715;1093;102927;-71
2021/07/12 02:35:13;;;;;;;18.97;10.50;;;;;;;18.36;63.16;98861.94;125753;1092;103058;-71
2021/07/12 02:37:45;;;;;;;20.90;11.43;;;;;;;18.38;63.26;98851.84;125651;1093;101378;-71
2021/07/12 02:40:19;;;;;;;19.37;10.47;;;;;;;18.38;62.68;98854.55;125821;1093;103408;-73
2021/07/12 02:42:53;;;;;;;21.67;10.67;;;;;;;18.40;63.34;98852.52;125696;1092;102940;-72
2021/07/12 02:45:24;;;;;;;20.83;11.20;;;;;;;18.42;63.28;98845.13;125640;1093;103421;-70
2021/07/12 02:47:53;;;;;;;20.70;11.30;;;;;;;18.44;63.02;98850.33;125643;1092;102906;-73
2021/07/12 02:50:24;;;;;;;19.83;10.77;;;;;;;18.44;63.29;98859.27;125706;1093;102917;-71
2021/07/12 02:53:08;;;;;;;19.77;11.87;;;;;;;18.34;62.81;98866.66;125689;1093;103028;-71
2021/07/12 02:55:36;;;;;;;;;;;;;;;18.25;63.96;98863.12;125712;1093;102903;-70
2021/07/12 02:58:07;;;;;;;20.77;11.77;;;;;;;18.27;63.41;98871.88;125748;1093;103407;-71
2021/07/12 03:00:36;;;;;;;23.70;13.00;;;;;;;18.30;63.30;98867.99;125703;1092;102934;-71
2021/07/12 03:03:05;;;;;;;22.53;13.83;;;;;;;18.33;63.78;98878.43;125731;1093;102932;-72
2021/07/12 03:05:33;;;;;;;24.77;13.37;;;;;;;18.35;63.48;98870.17;125715;1093;103232;-72
2021/07/12 03:08:08;;;;;;;24.77;13.53;;;;;;;18.38;63.77;98864.45;125640;1093;103026;-73
2021/07/12 03:10:59;;;;;;;24.67;13.60;;;;;;;18.40;63.83;98876.76;125703;1093;102988;-72
2021/07/12 03:13:38;;;;;;;23.47;15.03;;;;;;;18.43;63.92;98867.49;125688;1093;103002;-72
2021/07/12 03:16:08;;;;;;;27.50;16.03;;;;;;;18.45;63.54;98871.72;125705;1093;102938;-71
2021/07/12 03:18:58;;;;;;;26.53;16.10;;;;;;;18.44;64.09;98861.95;125712;1093;102875;-71
2021/07/12 03:21:27;;;;;;;24.87;14.87;;;;;;;18.48;63.89;98862.45;125681;1093;103022;-71
2021/07/12 03:24:01;;;;;;;26.00;16.87;;;;;;;18.52;64.12;98854.89;125733;1093;102988;-71
2021/07/12 03:26:31;;;;;;;28.07;16.60;;;;;;;18.55;64.06;98858.08;125745;1092;103002;-71
2021/07/12 03:29:01;;;;;;;27.07;15.97;;;;;;;18.55;63.58;98866.16;125781;1093;102945;-71
2021/07/12 03:31:30;;;;;;;24.97;15.27;;;;;;;18.48;63.74;98864.31;125755;1093;103005;-72
2021/07/12 03:34:00;;;;;;;27.27;15.90;;;;;;;18.42;64.25;98861.28;125701;1093;103037;-71
2021/07/12 03:36:33;;;;;;;26.30;16.17;;;;;;;18.40;64.17;98863.30;125752;1092;103055;-72
2021/07/12 03:39:04;;;;;;;25.03;15.27;;;;;;;18.40;63.98;98865.98;125738;1093;103002;-71
2021/07/12 03:41:35;;;;;;;24.80;15.17;;;;;;;18.39;64.20;98861.61;125705;1093;103011;-72
2021/07/12 03:44:06;;;;;;;26.47;14.93;;;;;;;18.43;64.25;98868.34;125713;1093;103508;-71
2021/07/12 03:46:41;;;;;;;25.50;13.77;;;;;;;18.50;64.32;98862.30;125718;1093;102932;-73
2021/07/12 03:49:15;;;;;;;25.90;14.87;;;;;;;18.55;64.63;98863.47;125747;1093;102935;-72
2021/07/12 03:51:46;;;;;;;;;;;;;;;18.60;64.70;98847.64;125693;1093;103017;-74
2021/07/12 03:54:16;;;;;;;26.13;14.33;;;;;;;18.64;64.33;98850.83;125732;1092;102910;-72
2021/07/12 03:56:45;;;;;;;26.17;16.17;;;;;;;18.69;64.65;98855.73;125701;1093;103119;-72
2021/07/12 03:59:13;;;;;;;28.07;16.27;;;;;;;18.71;64.47;98851.84;125670;1092;102911;-71
2021/07/12 04:01:43;;;;;;;27.93;17.13;;;;;;;18.76;64.60;98848.63;125773;1093;102975;-72
2021/07/12 04:04:11;;;;;;;25.70;15.17;;;;;;;18.80;64.62;98851.84;127672;1093;100754;-74
2021/07/12 04:06:39;;;;;;;25.90;16.80;;;;;;;18.81;64.53;98846.27;125653;1093;102894;-71
2021/07/12 04:09:08;;;;;;;28.50;16.70;;;;;;;18.86;64.94;98851.16;125824;1093;103004;-72
2021/07/12 04:11:36;;;;;;;27.20;16.37;;;;;;;18.90;64.51;98852.50;125797;1093;103105;-73
2021/07/12 04:14:05;;;;;;;27.63;16.47;;;;;;;18.94;64.57;98848.45;125851;1093;102909;-72
2021/07/12 04:16:34;;;;;;;24.93;15.17;;;;;;;18.97;64.71;98848.12;125819;1092;103530;-72
2021/07/12 04:19:02;;;;;;;25.15;15.50;;;;;;;19.02;65.04;98851.14;125859;1093;102929;-72
2021/07/12 04:21:31;;;;;;;26.80;15.73;;;;;;;19.08;64.80;98857.72;125855;1093;102975;-72
2021/07/12 04:23:59;;;;;;;25.27;14.73;;;;;;;19.11;64.74;98856.52;125829;1093;103358;-72
2021/07/12 04:26:27;;;;;;;21.90;13.35;;;;;;;19.14;64.78;98854.34;125736;1092;103021;-72
2021/07/12 04:28:56;;;;;;;19.50;11.13;;;;;;;19.18;64.95;98855.66;125842;1093;103023;-73
2021/07/12 04:31:24;;;;;;;20.87;12.00;;;;;;;19.22;65.30;98858.00;125840;1093;103457;-72
2021/07/12 04:33:53;;;;;;;20.17;10.97;;;;;;;19.25;64.92;98860.36;125866;1093;102988;-72
2021/07/12 04:36:22;;;;;;;17.80;10.00;;;;;;;19.30;65.32;98855.29;125794;1093;103022;-72
2021/07/12 04:38:50;;;;;;;17.73;9.93;;;;;;;19.34;64.96;98845.84;125856;1093;102929;-72
2021/07/12 04:41:18;;;;;;;16.43;8.77;;;;;;;19.38;65.28;98852.58;125824;1093;103017;-71
2021/07/12 04:43:47;;;;;;;17.27;9.13;;;;;;;19.42;65.03;98851.22;125833;1093;102932;-72
2021/07/12 04:46:15;;;;;;;19.53;9.23;;;;;;;19.46;65.30;98849.00;125710;1092;102911;-71
2021/07/12 04:48:44;;;;;;;18.37;8.70;;;;;;;19.49;65.36;98843.25;125831;1092;103181;-72
2021/07/12 04:51:12;;;;;;;16.63;8.37;;;;;;;19.54;65.62;98842.75;125710;1093;102913;-72
2021/07/12 04:53:42;;;;;;;16.77;8.57;;;;;;;19.58;65.58;98830.56;125860;1091;103016;-72
2021/07/12 04:56:10;;;;;;;17.60;8.83;;;;;;;19.61;65.71;98836.47;125860;1091;102913;-71
2021/07/12 04:58:44;;;;;;;14.37;8.07;;;;;;;19.69;65.57;98829.35;125847;1093;102985;-73
2021/07/12 05:01:13;;;;;;;16.73;9.13;;;;;;;19.70;65.70;98825.64;125671;1093;103086;-73
2021/07/12 05:03:42;;;;;;;18.50;8.87;;;;;;;19.76;65.56;98831.16;125832;1093;103419;-72
2021/07/12 05:06:11;;;;;;;18.57;8.30;;;;;;;19.85;65.75;98836.52;125810;1093;102905;-71
2021/07/12 05:08:39;;;;;;;15.40;8.50;;;;;;;19.90;65.47;98834.16;125831;1092;103540;-73
2021/07/12 05:11:08;;;;;;;16.30;9.40;;;;;;;19.92;65.48;98832.13;125703;1093;103001;-73
2021/07/12 05:13:37;;;;;;;17.40;8.90;;;;;;;19.96;65.59;98838.85;125831;1092;103003;-72
2021/07/12 05:16:05;;;;;;;16.57;9.33;;;;;;;19.97;65.55;98843.20;125803;1093;102929;-73
2021/07/12 05:18:34;;;;;;;19.90;10.87;;;;;;;19.99;65.58;98829.55;125821;1093;103058;-72
2021/07/12 05:21:02;;;;;;;18.33;9.60;;;;;;;20.03;65.73;98828.99;125844;1093;102906;-73
2021/07/12 05:23:31;;;;;;;18.40;9.30;;;;;;;20.10;65.73;98826.44;125826;1093;102991;-72
2021/07/12 05:25:59;;;;;;;20.13;11.50;;;;;;;20.15;65.69;98820.48;125809;1092;103081;-72
2021/07/12 05:28:28;;;;;;;18.77;9.93;;;;;;;20.16;65.58;98824.87;125835;1092;102901;-72
2021/07/12 05:30:56;;;;;;;19.23;10.43;;;;;;;20.19;65.81;98827.21;125778;1093;103527;-72
2021/07/12 05:33:25;;;;;;;19.13;11.23;;;;;;;20.24;65.75;98824.81;125753;1093;103056;-73
2021/07/12 05:35:53;;;;;;;20.55;11.10;;;;;;;20.30;65.85;98823.24;125692;1093;103028;-73
2021/07/12 05:38:21;;;;;;;19.53;11.07;;;;;;;20.35;65.83;98824.41;125674;1091;102913;-73
2021/07/12 05:40:50;;;;;;;19.80;11.33;;;;;;;20.41;65.94;98825.53;125682;1093;102938;-72
2021/07/12 05:43:18;;;;;;;20.40;10.90;;;;;;;20.48;65.97;98828.33;125713;1093;103024;-71
2021/07/12 05:45:47;;;;;;;19.57;11.27;;;;;;;20.51;65.76;98827.97;125741;1093;103121;-73
2021/07/12 05:48:15;;;;;;;19.40;10.13;;;;;;;20.58;65.73;98826.22;125666;1093;103155;-73
2021/07/12 05:50:44;;;;;;;23.07;11.20;;;;;;;20.67;65.96;98814.32;125673;1093;103061;-72
2021/07/12 05:53:14;;;;;;;17.85;11.25;;;;;;;20.77;65.97;98821.37;125742;1092;102951;-71
2021/07/12 05:55:42;;;;;;;19.50;11.10;;;;;;;20.87;65.94;98830.03;125687;1093;103412;-70
2021/07/12 05:58:11;;;;;;;20.20;12.07;;;;;;;20.95;66.00;98826.42;125675;1093;102911;-71
2021/07/12 06:00:40;;;;;;;21.47;12.00;;;;;;;20.98;65.90;98831.46;125658;1093;102982;-71
2021/07/12 06:03:08;;;;;;;19.83;12.40;;;;;;;21.01;65.94;98831.06;125672;1093;103173;-72
2021/07/12 06:05:36;;;;;;;19.43;11.67;;;;;;;21.13;65.88;98831.47;125656;1093;103095;-71
2021/07/12 06:08:05;;;;;;;20.97;12.43;;;;;;;21.27;65.77;98827.91;125692;1093;102935;-71
2021/07/12 06:10:33;;;;;;;20.47;12.13;;;;;;;21.36;65.93;98828.67;125712;1093;103367;-71
2021/07/12 06:13:02;;;;;;;22.27;12.47;;;;;;;21.47;66.21;98832.75;125715;1093;103421;-70
2021/07/12 06:15:31;;;;;;;20.70;11.83;;;;;;;21.59;66.14;98827.70;125754;1093;103056;-69
2021/07/12 06:17:59;;;;;;;18.30;11.53;;;;;;;21.70;66.04;98823.69;125803;1093;102907;-70
2021/07/12 06:20:27;;;;;;;20.60;12.30;;;;;;;21.79;66.24;98822.55;125806;1093;103062;-71
2021/07/12 06:22:56;;;;;;;20.23;12.37;;;;;;;21.90;65.56;98817.67;125817;1092;103028;-71
2021/07/12 06:25:25;;;;;;;20.57;11.77;;;;;;;22.05;65.98;98813.03;125841;1093;103003;-72
2021/07/12 06:27:53;;;;;;;19.57;11.37;;;;;;;22.26;65.48;98824.92;125743;1092;103422;-71
2021/07/12 06:30:22;;;;;;;21.73;11.47;;;;;;;22.52;65.33;98818.08;125825;1093;103496;-70
2021/07/12 06:32:50;;;;;;;19.60;11.30;;;;;;;22.81;64.91;98808.11;125810;1092;103003;-70
2021/07/12 06:35:18;;;;;;;20.97;11.00;;;;;;;22.95;65.57;98823.42;125839;1092;103084;-75
2021/07/12 06:37:47;;;;;;;21.97;10.50;;;;;;;23.02;65.36;98823.48;125852;1093;102905;-73
2021/07/12 06:40:15;;;;;;;20.57;10.40;;;;;;;23.13;65.84;98828.33;125684;1093;102966;-76
2021/07/12 06:42:44;;;;;;;18.47;9.60;;;;;;;23.29;65.70;98824.48;125834;1093;103005;-77
2021/07/12 06:45:13;;;;;;;20.23;9.87;;;;;;;23.44;65.85;98828.95;125873;1093;102906;-75
2021/07/12 06:47:42;;;;;;;19.03;9.40;;;;;;;23.55;65.44;98824.81;126008;1093;103151;-75
2021/07/12 06:50:11;;;;;;;20.30;10.00;;;;;;;23.64;65.78;98837.18;125859;1092;103070;-76
2021/07/12 06:52:42;;;;;;;19.63;10.13;;;;;;;23.74;65.56;98825.94;125681;1093;103078;-76
2021/07/12 06:55:11;;;;;;;17.53;9.77;;;;;;;23.85;65.14;98829.94;125696;1092;102939;-75
2021/07/12 06:57:40;;;;;;;18.50;10.05;;;;;;;23.99;65.10;98830.86;125675;1093;102909;-74
2021/07/12 07:00:09;;;;;;;18.33;9.87;;;;;;;24.24;64.92;98828.41;125711;1093;102932;-74
2021/07/12 07:02:38;;;;;;;16.67;8.87;;;;;;;24.73;65.09;98830.95;125728;1093;102929;-75
2021/07/12 07:05:08;;;;;;;16.73;8.17;;;;;;;25.78;64.06;98835.55;125687;1093;103179;-74
2021/07/12 07:07:37;;;;;;;18.20;8.40;;;;;;;26.73;63.34;98836.61;125747;1093;103405;-74
2021/07/12 07:10:07;;;;;;;17.67;8.03;;;;;;;27.63;62.91;98833.66;125684;1093;103084;-76
2021/07/12 07:12:36;;;;;;;17.03;8.20;;;;;;;28.29;62.55;98836.56;125681;1093;103087;-75
2021/07/12 07:15:05;;;;;;;17.47;7.83;;;;;;;29.10;62.61;98830.63;125696;1092;103002;-74
2021/07/12 07:17:34;;;;;;;15.90;7.83;;;;;;;30.02;62.67;98827.34;125712;1093;103058;-76
2021/07/12 07:20:05;;;;;;;15.63;7.00;;;;;;;31.19;62.04;98825.98;125722;1093;102998;-73
2021/07/12 07:22:34;;;;;;;13.30;6.65;;;;;;;31.43;61.08;98828.48;125634;1093;103005;-73
2021/07/12 07:25:04;;;;;;;15.77;6.93;;;;;;;31.45;60.83;98832.66;125722;1093;102932;-74
2021/07/12 07:27:40;;;;;;;14.80;7.17;;;;;;;31.80;60.63;98830.61;125644;1093;102998;-73
2021/07/12 07:30:10;;;;;;;14.40;7.13;;;;;;;32.56;60.87;98825.34;125649;1092;103066;-73
2021/07/12 07:32:40;;;;;;;12.70;6.97;;;;;;;33.81;60.80;98825.80;125706;1093;103331;-74
2021/07/12 07:35:09;;;;;;;12.87;6.60;;;;;;;35.09;60.79;98828.95;125726;1092;102996;-75
2021/07/12 07:37:38;;;;;;;12.03;6.13;;;;;;;36.23;59.52;98830.42;125737;1092;102933;-75
2021/07/12 07:40:08;;;;;;;9.37;5.27;;;;;;;36.31;57.50;98840.89;125757;1092;103087;-75
2021/07/12 07:42:37;;;;;;;8.90;5.50;;;;;;;35.75;56.67;98837.31;125740;1093;103052;-73
2021/07/12 07:45:09;;;;;;;11.00;5.43;;;;;;;35.49;56.26;98842.97;125734;1092;103066;-73
2021/07/12 07:47:37;;;;;;;12.37;6.07;;;;;;;35.87;57.59;98840.58;125708;1093;103062;-77
2021/07/12 07:50:21;;;;;;;11.67;5.83;;;;;;;37.06;57.13;98844.45;125712;1093;102932;-75
2021/07/12 07:52:51;;;;;;;12.97;5.33;;;;;;;37.67;55.26;98851.27;125704;1093;102974;-73
2021/07/12 07:55:21;;;;;;;10.07;5.77;;;;;;;36.98;55.11;98848.67;125706;1092;103184;-73
2021/07/12 07:57:49;;;;;;;11.37;5.73;;;;;;;35.70;53.65;98848.41;125759;1093;103043;-74
2021/07/12 08:00:20;;;;;;;9.05;5.50;;;;;;;34.65;53.01;98844.19;125654;1093;102930;-74
2021/07/12 08:02:50;;;;;;;15.70;5.93;;;;;;;34.90;52.85;98838.92;125724;1093;102995;-74
2021/07/12 08:05:20;;;;;;;10.47;5.77;;;;;;;35.67;52.46;98844.28;125693;1093;103001;-74
2021/07/12 08:07:49;;;;;;;12.63;6.23;;;;;;;36.36;52.51;98843.63;125696;1093;103010;-74
2021/07/12 08:10:19;;;;;;;11.63;5.70;;;;;;;37.31;51.81;98836.97;125728;1093;103066;-74
2021/07/12 08:12:48;;;;;;;11.90;5.97;;;;;;;37.10;49.95;98845.50;125660;1093;102938;-73
2021/07/12 08:15:19;;;;;;;12.93;5.80;;;;;;;36.89;50.57;98836.53;125744;1092;102906;-74
2021/07/12 08:17:49;;;;;;;11.75;5.80;;;;;;;37.22;50.13;98840.38;125688;1093;102902;-75
2021/07/12 08:20:18;;;;;;;12.93;5.30;;;;;;;37.43;49.67;98842.09;125679;1093;102972;-75
2021/07/12 08:22:53;;;;;;;12.63;5.87;;;;;;;37.28;49.03;98843.09;125689;1093;103061;-74
2021/07/12 08:25:23;;;;;;;11.07;5.90;;;;;;;37.50;49.34;98831.50;125699;1093;102935;-71
2021/07/12 08:27:52;;;;;;;10.87;5.80;;;;;;;38.07;48.70;98837.13;125734;1092;103054;-73
2021/07/12 08:30:22;;;;;;;7.53;4.83;;;;;;;38.85;48.95;98838.67;125823;1093;103058;-71
2021/07/12 08:32:52;;;;;;;8.43;5.17;;;;;;;39.73;48.60;98842.56;125729;1092;103007;-72
2021/07/12 08:35:21;;;;;;;13.47;5.77;;;;;;;40.11;47.60;98844.27;125661;1093;103069;-73
2021/07/12 08:37:50;;;;;;;12.43;6.10;;;;;;;40.83;47.80;98848.11;125710;1093;102927;-72
2021/07/12 08:40:22;;;;;;;12.07;5.20;;;;;;;41.49;47.18;98849.41;125669;1093;103909;-74
2021/07/12 08:42:52;;;;;;;11.40;5.70;;;;;;;41.95;46.86;98847.22;125646;1093;102913;-73
2021/07/12 08:45:22;;;;;;;12.05;5.23;;;;;;;42.11;46.11;98844.78;125677;1093;103051;-72
2021/07/12 08:47:52;;;;;;;10.40;5.40;;;;;;;42.43;45.81;98841.85;125779;1093;102904;-75
2021/07/12 08:50:22;;;;;;;9.40;5.37;;;;;;;42.20;44.67;98841.98;125663;1093;102998;-73
2021/07/12 08:52:53;;;;;;;10.05;5.03;;;;;;;41.66;43.73;98834.70;125745;1093;102941;-73
2021/07/12 08:55:23;;;;;;;9.28;4.80;;;;;;;41.74;43.89;98841.44;125723;1092;102932;-72
2021/07/12 08:58:11;;;;;;;9.03;5.27;;;;;;;41.86;43.79;98835.20;125675;1093;102910;-72
2021/07/12 09:00:53;;;;;;;9.17;4.90;;;;;;;42.25;43.13;98834.28;125744;1092;103057;-73
2021/07/12 09:03:43;;;;;;;7.20;4.75;;;;;;;42.09;42.70;98838.70;125718;1093;102939;-73
2021/07/12 09:06:27;;;;;;;7.63;4.70;;;;;;;42.10;41.69;98835.60;125767;1093;102997;-71
2021/07/12 09:08:59;;;;;;;11.57;5.33;;;;;;;41.99;41.74;98836.23;125702;1091;102988;-72
2021/07/12 09:11:40;;;;;;;9.37;4.93;;;;;;;42.28;41.61;98837.56;125685;1093;103115;-75
2021/07/12 09:14:13;;;;;;;8.35;5.20;;;;;;;42.54;41.00;98837.56;125679;1092;103057;-73
2021/07/12 09:16:51;;;;;;;8.27;4.90;;;;;;;42.89;40.63;98840.30;125646;1093;103015;-72
2021/07/12 09:19:39;;;;;;;9.43;5.00;;;;;;;43.19;39.76;98833.95;125700;1093;102994;-73
2021/07/12 09:22:10;;;;;;;8.43;4.63;;;;;;;42.65;38.91;98840.83;125710;1092;103031;-72
2021/07/12 09:24:45;;;;;;;10.53;4.50;;;;;;;42.26;38.79;98835.09;125696;1093;103161;-75
2021/07/12 09:27:19;;;;;;;5.23;4.07;;;;;;;42.49;38.81;98838.55;125756;1091;103056;-74
2021/07/12 09:29:50;;;;;;;9.13;4.10;;;;;;;42.30;38.09;98838.86;125997;1093;103003;-75
2021/07/12 09:32:27;;;;;;;8.23;4.10;;;;;;;41.98;37.58;98831.83;125726;1092;102931;-74
2021/07/12 09:35:01;;;;;;;9.40;4.20;;;;;;;42.11;37.66;98830.82;125637;1093;102939;-74
2021/07/12 09:37:30;;;;;;;7.47;4.30;;;;;;;42.22;37.00;98831.30;125681;1093;103093;-73
2021/07/12 09:39:59;;;;;;;9.53;4.07;;;;;;;42.14;37.02;98834.95;125728;1093;103046;-72
2021/07/12 09:42:33;;;;;;;7.83;4.30;;;;;;;42.05;36.43;98830.17;125827;1091;103006;-72
2021/07/12 09:45:07;;;;;;;6.50;4.60;;;;;;;41.98;36.29;98826.23;125748;1092;103061;-72
2021/07/12 09:47:39;;;;;;;12.40;4.10;;;;;;;42.10;35.47;98818.84;126079;1093;102977;-74
2021/07/12 09:50:09;;;;;;;6.40;3.50;;;;;;;41.89;34.97;98832.60;125698;1093;103031;-73
2021/07/12 09:53:00;;;;;;;6.77;3.40;;;;;;;41.18;34.62;98831.58;125729;1093;102939;-73
2021/07/12 09:55:50;;;;;;;6.83;3.77;;;;;;;40.51;34.16;98824.10;125695;1093;102936;-73
2021/07/12 09:58:20;;;;;;;5.53;3.70;;;;;;;40.13;33.84;98828.88;125719;1093;103000;-71
2021/07/12 10:00:49;;;;;;;7.67;3.53;;;;;;;39.72;33.58;98833.41;125649;1093;102909;-72
2021/07/12 10:03:20;;;;;;;6.43;3.77;;;;;;;39.40;33.35;98826.83;125680;1093;103006;-73
2021/07/12 10:05:51;;;;;;;6.15;3.85;;;;;;;39.16;33.46;98827.84;125671;1093;102909;-73
2021/07/12 10:08:20;;;;;;;5.43;3.75;;;;;;;39.01;33.07;98828.13;125702;1092;103032;-72
2021/07/12 10:10:49;;;;;;;6.93;4.20;;;;;;;38.95;33.30;98823.78;125715;1093;103027;-73
2021/07/12 10:13:18;;;;;;;6.87;3.97;;;;;;;38.84;33.04;98818.41;125713;1092;103043;-72
2021/07/12 10:15:46;;;;;;;8.40;4.40;;;;;;;38.52;32.24;98816.47;125620;1090;103058;-72
2021/07/12 10:18:15;;;;;;;8.13;4.63;;;;;;;38.02;32.40;98814.19;125722;1093;103183;-72
2021/07/12 10:20:44;;;;;;;8.90;4.97;;;;;;;37.60;32.30;98809.18;125662;1093;103016;-72
2021/07/12 10:23:15;;;;;;;7.00;4.43;;;;;;;37.23;32.04;98808.77;125690;1092;103035;-73
2021/07/12 10:25:48;;;;;;;6.50;4.23;;;;;;;36.92;32.15;98808.23;125782;1093;103403;-72
2021/07/12 10:28:43;;;;;;;9.37;4.40;;;;;;;36.52;31.77;98802.81;125699;1093;103016;-73
2021/07/12 10:31:22;;;;;;;8.73;4.53;;;;;;;36.23;31.90;98803.58;125953;1092;103162;-72
2021/07/12 10:33:50;;;;;;;9.80;4.53;;;;;;;35.95;31.81;98808.70;125682;1093;103424;-71
2021/07/12 10:36:39;;;;;;;6.27;4.27;;;;;;;35.66;32.02;98809.43;125699;1091;103409;-72
2021/07/12 10:39:08;;;;;;;8.27;4.60;;;;;;;35.16;31.67;98809.33;125697;1092;103002;-73
2021/07/12 10:41:48;;;;;;;6.90;4.20;;;;;;;34.81;31.40;98805.52;125668;1092;102905;-74
2021/07/12 10:44:17;;;;;;;8.10;4.90;;;;;;;34.54;31.93;98799.19;125690;1093;103428;-71
2021/07/12 10:46:46;;;;;;;10.90;4.67;;;;;;;34.44;31.25;98793.66;125664;1093;103007;-72
2021/07/12 10:49:37;;;;;;;7.77;4.43;;;;;;;34.36;31.94;98789.50;125692;1092;102916;-72
2021/07/12 10:52:06;;;;;;;6.57;4.67;;;;;;;34.24;31.73;98789.75;125681;1092;102928;-72
2021/07/12 10:55:03;;;;;;;7.50;4.50;;;;;;;34.12;31.64;98789.21;125634;1093;103064;-73
2021/07/12 10:57:32;;;;;;;9.40;4.63;;;;;;;34.08;31.68;98782.58;125765;1093;103016;-73
2021/07/12 11:00:12;;;;;;;6.67;4.20;;;;;;;34.04;32.00;98773.19;125681;1092;103428;-71
2021/07/12 11:02:41;;;;;;;8.77;4.37;;;;;;;33.98;32.16;98759.39;125738;1092;103041;-72
2021/07/12 11:05:15;;;;;;;8.97;4.10;;;;;;;33.95;31.95;98770.16;125690;1092;103019;-72
2021/07/12 11:07:46;;;;;;;6.70;4.37;;;;;;;33.72;32.06;98754.91;126111;1093;102993;-74
2021/07/12 11:10:22;;;;;;;10.03;5.23;;;;;;;33.62;31.91;98775.83;125757;1092;102935;-71
2021/07/12 11:12:57;;;;;;;10.57;5.00;;;;;;;33.61;32.01;98771.42;125682;1093;102936;-73
2021/07/12 11:15:31;;;;;;;9.40;4.50;;;;;;;33.59;32.64;98781.89;126379;1093;102882;-73
2021/07/12 11:18:06;;;;;;;9.13;4.73;;;;;;;33.61;32.19;98792.66;125722;1093;102955;-73
2021/07/12 11:20:51;;;;;;;9.23;4.30;;;;;;;33.57;32.39;98784.09;125675;1093;103060;-72
2021/07/12 11:23:41;;;;;;;7.80;4.60;;;;;;;33.63;32.51;98790.44;125675;1091;102932;-73
2021/07/12 11:26:23;;;;;;;6.07;4.00;;;;;;;33.61;32.81;98792.66;125703;1093;102917;-72
2021/07/12 11:28:58;;;;;;;7.47;4.63;;;;;;;33.58;32.93;98787.69;125680;1093;103084;-72